Time;durP1;ratioP1;P1;durP2;ratioP2;P2;SDS_P1;SDS_P2;PMS_P1;PMS_P2;Temp;Humidity;BMP_temperature;BMP_pressure;BME280_temperature;BME280_humidity;BME280_pressure;Samples;Min_cycle;Max_cycle;Signal;HPM_P1;HPM_P2
2021/12/09 00:01:07;;;;;;;12.68;7.37;;;;;;;-0.65;100.00;98854.77;1651611;85;21104;-70
2021/12/09 00:03:39;;;;;;;14.68;7.65;;;;;;;-0.63;100.00;98857.48;1652319;86;21963;-70
2021/12/09 00:06:06;;;;;;;12.80;6.97;;;;;;;-0.62;100.00;98860.45;1648976;86;21006;-71
2021/12/09 00:08:33;;;;;;;13.03;6.45;;;;;;;-0.61;100.00;98862.61;1652140;86;21017;-70
2021/12/09 00:11:03;;;;;;;13.10;6.53;;;;;;;-0.62;100.00;98865.84;1651649;86;21076;-70
2021/12/09 00:13:30;;;;;;;11.85;6.55;;;;;;;-0.59;100.00;98874.76;1653615;86;21536;-70
2021/12/09 00:15:57;;;;;;;14.38;6.70;;;;;;;-0.56;100.00;98868.81;1653576;86;21554;-70
2021/12/09 00:18:24;;;;;;;11.28;6.22;;;;;;;-0.52;100.00;98874.50;1655037;86;21010;-70
2021/12/09 00:20:50;;;;;;;12.13;6.28;;;;;;;-0.52;100.00;98877.20;1651217;86;21565;-70
2021/12/09 00:23:17;;;;;;;10.60;6.40;;;;;;;-0.51;100.00;98876.12;1653740;86;21023;-71
2021/12/09 00:25:43;;;;;;;12.58;6.60;;;;;;;-0.51;100.00;98880.17;1654472;86;21061;-70
2021/12/09 00:28:09;;;;;;;13.43;6.58;;;;;;;-0.53;100.00;98883.13;1653886;86;21479;-70
2021/12/09 00:30:36;;;;;;;11.28;6.25;;;;;;;-0.52;100.00;98881.25;1651699;86;21161;-71
2021/12/09 00:33:05;;;;;;;9.90;5.95;;;;;;;-0.52;100.00;98874.50;1651570;86;21034;-70
2021/12/09 00:35:42;;;;;;;10.25;6.15;;;;;;;-0.52;100.00;98882.59;1651354;86;21109;-70
2021/12/09 00:38:05;;;;;;;12.82;6.80;;;;;;;-0.53;100.00;98881.78;1653471;86;21616;-70
2021/12/09 00:40:28;;;;;;;11.00;6.72;;;;;;;-0.54;100.00;98886.09;1646856;85;21160;-70
2021/12/09 00:42:55;;;;;;;12.15;6.92;;;;;;;-0.52;100.00;98881.25;1643570;86;20994;-70
2021/12/09 00:45:21;;;;;;;14.85;7.62;;;;;;;-0.51;100.00;98884.22;1634898;86;21094;-70
2021/12/09 00:47:48;;;;;;;11.38;6.25;;;;;;;-0.51;100.00;98885.56;1638652;86;21031;-70
2021/12/09 00:50:15;;;;;;;14.90;7.50;;;;;;;-0.52;100.00;98890.68;1636935;86;21093;-70
2021/12/09 00:52:41;;;;;;;11.53;6.53;;;;;;;-0.52;100.00;98896.89;1638769;86;21614;-70
2021/12/09 00:55:08;;;;;;;13.38;7.53;;;;;;;-0.53;100.00;98900.66;1633719;86;21116;-68
2021/12/09 00:57:37;;;;;;;12.58;6.92;;;;;;;-0.53;100.00;98900.66;1635103;86;21081;-69
2021/12/09 01:00:10;;;;;;;13.00;7.20;;;;;;;-0.54;100.00;98904.95;1641197;86;21035;-69
2021/12/09 01:02:37;;;;;;;12.53;7.37;;;;;;;-0.51;100.00;98899.86;1638950;85;21083;-69
2021/12/09 01:05:04;;;;;;;12.90;7.45;;;;;;;-0.48;100.00;98901.23;1642594;86;21625;-69
2021/12/09 01:07:31;;;;;;;10.58;6.67;;;;;;;-0.48;100.00;98907.43;1636540;85;21006;-71
2021/12/09 01:09:58;;;;;;;9.53;6.47;;;;;;;-0.44;100.00;98902.33;1634369;86;21031;-69
2021/12/09 01:12:24;;;;;;;15.85;8.03;;;;;;;-0.44;100.00;98903.14;1635455;86;20987;-70
2021/12/09 01:14:51;;;;;;;11.22;6.85;;;;;;;-0.44;100.00;98905.84;1635997;86;21105;-69
2021/12/09 01:17:18;;;;;;;11.57;7.22;;;;;;;-0.44;100.00;98909.08;1633753;86;21792;-71
2021/12/09 01:19:46;;;;;;;9.85;6.62;;;;;;;-0.43;100.00;98899.91;1634888;86;21014;-70
2021/12/09 01:22:14;;;;;;;13.65;7.47;;;;;;;-0.42;100.00;98894.80;1615886;87;21058;-70
2021/12/09 01:24:41;;;;;;;12.50;6.55;;;;;;;-0.42;100.00;98900.19;1588498;88;21459;-70
2021/12/09 01:27:08;;;;;;;11.90;7.47;;;;;;;-0.42;100.00;98896.14;1625107;87;20963;-70
2021/12/09 01:29:38;;;;;;;14.18;7.45;;;;;;;-0.43;100.00;98898.56;1607094;88;21993;-69
2021/12/09 01:32:06;;;;;;;17.00;7.65;;;;;;;-0.44;100.00;98900.98;1608015;87;20929;-70
2021/12/09 01:38:45;;;;;;;11.08;6.62;;;;;;;-0.47;100.00;98900.97;1607187;89;21584;-71
2021/12/09 01:41:12;;;;;;;15.55;8.10;;;;;;;-0.46;100.00;98907.98;1607905;89;20922;-70
2021/12/09 01:43:39;;;;;;;16.80;8.18;;;;;;;-0.46;100.00;98908.52;1607712;88;21969;-70
2021/12/09 01:46:11;;;;;;;13.40;7.75;;;;;;;-0.49;100.00;98910.39;1607775;89;21093;-71
2021/12/09 01:48:38;;;;;;;15.45;7.33;;;;;;;-0.46;100.00;98915.27;1608045;87;21561;-71
2021/12/09 01:51:05;;;;;;;11.65;6.53;;;;;;;-0.45;100.00;98907.45;1607812;88;21631;-71
2021/12/09 01:53:32;;;;;;;17.77;7.97;;;;;;;-0.45;100.00;98909.61;1607722;89;21008;-71
2021/12/09 01:56:02;;;;;;;12.85;7.50;;;;;;;-0.44;100.00;98907.73;1607509;87;21540;-71
2021/12/09 01:58:29;;;;;;;13.68;7.20;;;;;;;-0.44;100.00;98905.84;1666023;85;21530;-70
2021/12/09 02:00:55;;;;;;;13.53;7.33;;;;;;;-0.43;100.00;98903.95;1616044;87;21123;-69
2021/12/09 02:03:22;;;;;;;13.30;7.47;;;;;;;-0.44;100.00;98909.08;1639852;87;21956;-69
2021/12/09 02:05:48;;;;;;;13.20;7.70;;;;;;;-0.43;100.00;98909.35;1621972;87;21601;-69
2021/12/09 02:08:15;;;;;;;14.33;7.60;;;;;;;-0.42;100.00;98909.09;1619515;87;22022;-70
2021/12/09 02:10:43;;;;;;;12.05;7.22;;;;;;;-0.42;100.00;98909.09;1611182;87;21094;-70
2021/12/09 02:13:09;;;;;;;13.15;6.47;;;;;;;-0.39;100.00;98910.45;1614787;87;20999;-70
2021/12/09 02:15:38;;;;;;;14.23;7.67;;;;;;;-0.39;100.00;98913.16;1612455;87;21050;-70
2021/12/09 02:18:06;;;;;;;13.13;7.25;;;;;;;-0.41;100.00;98909.91;1670404;85;21254;-70
2021/12/09 02:21:29;;;;;;;13.62;7.40;;;;;;;-0.41;100.00;98915.30;1657711;85;21524;-71
2021/12/09 02:24:00;;;;;;;;;;;;;;;-0.43;100.00;98911.52;1668986;85;21075;-70
2021/12/09 02:26:30;;;;;;;14.83;7.67;;;;;;;-0.43;100.00;98910.16;1666996;85;20181;-69
2021/12/09 02:28:57;;;;;;;13.10;7.33;;;;;;;-0.45;100.00;98911.49;1660396;85;21023;-69
2021/12/09 02:31:25;;;;;;;16.00;8.43;;;;;;;-0.47;100.00;98915.80;1667266;85;21034;-70
2021/12/09 02:33:52;;;;;;;13.18;7.90;;;;;;;-0.49;100.00;98913.89;1662262;85;21133;-70
2021/12/09 02:36:19;;;;;;;12.10;6.87;;;;;;;-0.47;100.00;98913.10;1661449;85;21568;-70
2021/12/09 02:38:45;;;;;;;11.90;6.58;;;;;;;-0.48;100.00;98918.75;1673470;85;21603;-71
2021/12/09 02:41:17;;;;;;;17.62;7.50;;;;;;;-0.49;100.00;98919.29;1665533;85;21086;-70
2021/12/09 02:43:46;;;;;;;10.25;6.58;;;;;;;-0.47;100.00;98918.49;1674510;85;21524;-71
2021/12/09 02:46:13;;;;;;;15.98;8.05;;;;;;;-0.46;100.00;98919.30;1677477;85;21037;-71
2021/12/09 02:48:39;;;;;;;14.85;7.55;;;;;;;-0.49;100.00;98919.29;1668919;85;21113;-70
2021/12/09 02:51:06;;;;;;;12.40;7.60;;;;;;;-0.48;100.00;98924.95;1666519;85;21046;-70
2021/12/09 02:53:33;;;;;;;13.65;7.42;;;;;;;-0.46;100.00;98928.74;1663186;85;20998;-70
2021/12/09 02:56:20;;;;;;;13.05;8.10;;;;;;;-0.47;100.00;98929.28;1638405;86;21015;-70
2021/12/09 02:58:46;;;;;;;19.32;7.90;;;;;;;-0.46;100.00;98930.09;1628297;87;21565;-70
2021/12/09 03:01:18;;;;;;;12.10;6.92;;;;;;;-0.45;100.00;98937.11;1618099;87;21228;-70
2021/12/09 03:04:00;;;;;;;11.18;7.12;;;;;;;-0.42;100.00;98937.94;1662064;85;21090;-70
2021/12/09 03:06:45;;;;;;;12.18;7.33;;;;;;;-0.41;100.00;98943.61;1665672;85;21036;-70
2021/12/09 03:09:17;;;;;;;10.88;6.45;;;;;;;-0.40;100.00;98948.75;1668778;85;21491;-70
2021/12/09 03:11:48;;;;;;;10.50;6.30;;;;;;;-0.40;100.00;98948.75;1665727;85;21141;-70
2021/12/09 03:14:14;;;;;;;11.55;6.70;;;;;;;-0.40;100.00;98947.41;1672882;85;20932;-69
2021/12/09 03:16:41;;;;;;;9.60;5.70;;;;;;;-0.38;100.00;98955.23;1672599;85;20968;-69
2021/12/09 03:19:08;;;;;;;12.90;6.65;;;;;;;-0.38;100.00;98951.19;1661328;85;21253;-69
2021/12/09 03:21:38;;;;;;;10.28;6.28;;;;;;;-0.36;100.00;98950.39;1671333;85;21030;-70
2021/12/09 03:24:08;;;;;;;8.53;5.83;;;;;;;-0.34;100.00;98954.45;1664615;85;21740;-69
2021/12/09 03:26:39;;;;;;;10.40;6.22;;;;;;;-0.33;100.00;98957.97;1667763;85;21623;-69
2021/12/09 03:29:09;;;;;;;11.90;5.92;;;;;;;-0.34;100.00;98957.69;1659117;85;21125;-69
2021/12/09 03:31:37;;;;;;;8.63;5.35;;;;;;;-0.33;100.00;98956.62;1663443;85;21473;-70
2021/12/09 03:34:04;;;;;;;12.82;6.25;;;;;;;-0.32;100.00;98954.73;1665799;85;20914;-70
2021/12/09 03:36:30;;;;;;;10.25;5.87;;;;;;;-0.30;100.00;98962.03;1671653;85;21019;-70
2021/12/09 03:38:58;;;;;;;12.70;6.47;;;;;;;-0.30;100.00;98960.14;1661970;85;20951;-70
2021/12/09 03:41:25;;;;;;;10.78;6.20;;;;;;;-0.26;100.00;98960.44;1626608;86;20927;-70
2021/12/09 03:43:52;;;;;;;8.63;5.15;;;;;;;-0.25;100.00;98958.84;1635967;86;21050;-71
2021/12/09 03:46:18;;;;;;;13.38;6.22;;;;;;;-0.22;100.00;98956.97;1635188;86;21029;-70
2021/12/09 03:48:45;;;;;;;11.35;6.90;;;;;;;-0.22;100.00;98960.20;1630400;86;21477;-71
2021/12/09 03:51:11;;;;;;;11.40;6.50;;;;;;;-0.23;100.00;98956.69;1631894;86;20875;-70
2021/12/09 03:53:38;;;;;;;12.30;6.10;;;;;;;-0.24;100.00;98965.85;1635571;86;20983;-70
2021/12/09 03:56:06;;;;;;;8.48;5.37;;;;;;;-0.23;100.00;98964.78;1635109;86;38796;-70
2021/12/09 03:58:32;;;;;;;11.55;6.67;;;;;;;-0.20;100.00;98963.45;1635040;86;21567;-70
2021/12/09 04:00:59;;;;;;;11.10;5.40;;;;;;;-0.22;100.00;98956.97;1635430;86;22032;-70
2021/12/09 04:03:26;;;;;;;13.18;7.53;;;;;;;-0.25;100.00;98956.14;1629435;86;20962;-70
2021/12/09 04:05:52;;;;;;;13.00;6.55;;;;;;;-0.24;100.00;98963.69;1636480;86;21034;-72
2021/12/09 04:08:21;;;;;;;9.78;5.90;;;;;;;-0.24;100.00;98964.51;1635148;86;21136;-72
2021/12/09 04:10:49;;;;;;;14.13;6.37;;;;;;;-0.21;100.00;98972.61;1636440;86;21063;-70
2021/12/09 04:13:17;;;;;;;8.85;5.17;;;;;;;-0.22;100.00;98970.98;1636396;86;21163;-70
2021/12/09 04:15:46;;;;;;;9.18;6.10;;;;;;;-0.22;100.00;98978.55;1625374;86;21552;-70
2021/12/09 04:18:14;;;;;;;10.90;6.37;;;;;;;-0.22;100.00;98974.50;1640351;86;21016;-72
2021/12/09 04:20:41;;;;;;;8.65;5.35;;;;;;;-0.22;100.00;98978.55;1629813;86;21158;-71
2021/12/09 04:23:08;;;;;;;10.28;6.10;;;;;;;-0.20;100.00;98976.94;1628228;86;21246;-71
2021/12/09 04:25:34;;;;;;;10.75;5.87;;;;;;;-0.20;100.00;98975.59;1642367;86;21107;-71
2021/12/09 04:28:01;;;;;;;11.60;6.22;;;;;;;-0.21;100.00;98977.48;1638624;86;21033;-71
2021/12/09 04:30:29;;;;;;;12.70;6.87;;;;;;;-0.24;100.00;98979.34;1629858;86;20992;-71
2021/12/09 04:32:56;;;;;;;13.30;7.00;;;;;;;-0.24;100.00;98984.73;1644047;86;21598;-70
2021/12/09 04:35:22;;;;;;;11.33;6.97;;;;;;;-0.22;100.00;98984.48;1635244;86;21096;-71
2021/12/09 04:37:50;;;;;;;12.65;6.92;;;;;;;-0.19;100.00;98983.42;1635074;86;21156;-71
2021/12/09 04:40:17;;;;;;;9.23;6.22;;;;;;;-0.15;100.00;98990.47;1635144;86;21044;-70
2021/12/09 04:42:44;;;;;;;16.15;6.42;;;;;;;-0.15;100.00;98991.81;1632560;86;21032;-70
2021/12/09 04:45:10;;;;;;;13.98;7.87;;;;;;;-0.15;100.00;98989.93;1642398;86;20925;-70
2021/12/09 04:47:38;;;;;;;10.60;6.53;;;;;;;-0.13;100.00;98988.32;1628035;86;21092;-70
2021/12/09 04:50:06;;;;;;;11.20;6.65;;;;;;;-0.13;100.00;98997.23;1629382;86;21064;-71
2021/12/09 04:52:32;;;;;;;12.30;7.03;;;;;;;-0.12;100.00;98998.05;1640684;86;21167;-70
2021/12/09 04:54:59;;;;;;;17.62;7.17;;;;;;;-0.11;100.00;98996.97;1635091;86;21152;-71
2021/12/09 04:57:25;;;;;;;12.68;7.08;;;;;;;-0.10;100.00;99003.45;1636520;86;21028;-69
2021/12/09 04:59:52;;;;;;;16.27;7.80;;;;;;;-0.09;100.00;99011.02;1631264;86;21135;-70
2021/12/09 05:02:43;;;;;;;14.68;8.18;;;;;;;-0.10;100.00;99008.85;1626587;86;21537;-69
2021/12/09 05:04:50;;;;;;;13.25;7.28;;;;;;;-0.10;100.00;99013.44;1633533;86;21237;-70
2021/12/09 05:07:18;;;;;;;13.30;8.35;;;;;;;-0.10;100.00;99020.99;1619827;87;21027;-70
2021/12/09 05:09:50;;;;;;;14.00;7.72;;;;;;;-0.11;100.00;99027.46;1626683;86;21023;-70
2021/12/09 05:12:13;;;;;;;14.23;7.75;;;;;;;-0.12;100.00;99031.77;1631679;86;21582;-71
2021/12/09 05:14:39;;;;;;;18.65;7.95;;;;;;;-0.10;100.00;99035.02;1627031;86;21570;-71
2021/12/09 05:17:06;;;;;;;14.93;6.65;;;;;;;-0.10;100.00;99041.23;1629924;86;20953;-71
2021/12/09 05:19:33;;;;;;;19.25;7.95;;;;;;;-0.09;100.00;99045.55;1630101;86;20925;-70
2021/12/09 05:22:00;;;;;;;14.23;7.45;;;;;;;-0.09;100.00;99047.44;1632340;85;21120;-72
2021/12/09 05:24:27;;;;;;;14.23;7.90;;;;;;;-0.08;100.00;99047.18;1644017;86;21623;-70
2021/12/09 05:26:55;;;;;;;12.98;7.08;;;;;;;-0.07;100.00;99048.81;1629746;86;21127;-78
2021/12/09 05:29:27;;;;;;;15.30;7.85;;;;;;;-0.05;100.00;99057.45;1637612;86;20998;-71
2021/12/09 05:32:10;;;;;;;15.15;7.87;;;;;;;-0.05;100.00;99054.76;1631325;86;21452;-68
2021/12/09 05:34:46;;;;;;;20.52;8.90;;;;;;;-0.02;100.00;99059.64;1626994;86;21030;-69
2021/12/09 05:37:19;;;;;;;15.48;8.28;;;;;;;0.03;100.00;99064.77;1606772;87;21537;-71
2021/12/09 05:39:46;;;;;;;19.45;9.13;;;;;;;0.03;100.00;99062.88;1597046;88;21080;-70
2021/12/09 05:42:15;;;;;;;18.65;9.98;;;;;;;0.01;100.00;99066.38;1599443;87;21463;-72
2021/12/09 05:44:42;;;;;;;18.37;9.70;;;;;;;-0.01;100.00;99068.02;1617143;87;21012;-70
2021/12/09 05:47:09;;;;;;;20.62;9.73;;;;;;;-0.02;100.00;99065.04;1612337;87;21031;-71
2021/12/09 05:49:37;;;;;;;21.55;9.68;;;;;;;-0.01;100.00;99066.66;1578042;89;21629;-71
2021/12/09 05:52:05;;;;;;;17.32;8.58;;;;;;;-0.01;100.00;99068.02;1570209;90;21194;-71
2021/12/09 05:54:32;;;;;;;22.77;10.90;;;;;;;-0.04;100.00;99069.06;1566434;90;21679;-71
2021/12/09 05:56:59;;;;;;;21.02;9.70;;;;;;;-0.04;100.00;99073.92;1566369;90;21142;-71
2021/12/09 05:59:26;;;;;;;22.87;10.40;;;;;;;-0.03;100.00;99075.55;1572853;90;21562;-71
2021/12/09 06:01:52;;;;;;;24.12;11.00;;;;;;;-0.02;100.00;99079.06;1582185;90;20960;-71
2021/12/09 06:04:19;;;;;;;17.70;8.58;;;;;;;-0.01;100.00;99077.46;1618193;87;21166;-71
2021/12/09 06:06:45;;;;;;;19.32;8.88;;;;;;;0.00;100.00;99082.32;1609992;87;20979;-71
2021/12/09 06:09:12;;;;;;;17.52;8.23;;;;;;;-0.03;100.00;99090.39;1613097;87;21008;-71
2021/12/09 06:11:40;;;;;;;18.62;8.30;;;;;;;-0.04;100.00;99087.95;1605306;87;21629;-71
2021/12/09 06:14:07;;;;;;;18.57;9.03;;;;;;;-0.06;100.00;99096.31;1617878;87;21134;-71
2021/12/09 06:16:34;;;;;;;14.90;8.33;;;;;;;-0.04;100.00;99096.05;1606715;88;21533;-71
2021/12/09 06:19:04;;;;;;;17.87;8.45;;;;;;;-0.04;100.00;99094.16;1596544;89;21125;-71
2021/12/09 06:21:31;;;;;;;17.12;8.45;;;;;;;-0.04;100.00;99094.16;1587307;89;21190;-71
2021/12/09 06:23:59;;;;;;;18.30;8.00;;;;;;;-0.02;100.00;99097.42;1593016;89;21589;-70
2021/12/09 06:26:26;;;;;;;17.40;7.87;;;;;;;0.00;100.00;99102.56;1588656;89;21558;-70
2021/12/09 06:28:53;;;;;;;21.05;7.78;;;;;;;0.00;100.00;99099.30;1592579;88;22494;-70
2021/12/09 06:31:20;;;;;;;19.75;9.03;;;;;;;0.00;100.00;99107.39;1588817;89;21019;-70
2021/12/09 06:33:47;;;;;;;14.70;7.35;;;;;;;-0.01;100.00;99105.80;1585767;89;21045;-70
2021/12/09 06:36:14;;;;;;;19.05;8.05;;;;;;;0.00;100.00;99106.04;1592897;89;21514;-71
2021/12/09 06:38:40;;;;;;;15.58;8.10;;;;;;;0.02;100.00;99109.02;1586633;89;21556;-70
2021/12/09 06:41:08;;;;;;;18.55;7.40;;;;;;;0.02;100.00;99112.53;1587735;88;21893;-70
2021/12/09 06:43:42;;;;;;;17.60;8.33;;;;;;;0.02;100.00;99109.83;1594925;88;21563;-71
2021/12/09 06:46:11;;;;;;;17.75;8.23;;;;;;;0.02;100.00;99112.53;1582712;89;21517;-71
2021/12/09 06:48:38;;;;;;;18.20;8.45;;;;;;;0.01;100.00;99117.65;1583586;89;21091;-71
2021/12/09 06:51:06;;;;;;;17.32;8.88;;;;;;;0.03;100.00;99125.48;1579707;89;21019;-71
2021/12/09 06:53:34;;;;;;;14.35;7.12;;;;;;;0.05;100.00;99123.34;1584250;89;21829;-70
2021/12/09 06:56:01;;;;;;;20.92;10.18;;;;;;;0.07;100.00;99129.30;1588300;89;21656;-70
2021/12/09 06:58:27;;;;;;;16.85;8.75;;;;;;;0.07;100.00;99122.55;1616690;88;21522;-71
2021/12/09 07:00:54;;;;;;;21.15;9.75;;;;;;;0.07;100.00;99117.97;1598419;89;21532;-74
2021/12/09 07:03:21;;;;;;;22.22;9.68;;;;;;;0.09;100.00;99125.81;1622947;88;20994;-70
2021/12/09 07:05:52;;;;;;;16.62;8.85;;;;;;;0.08;100.00;99121.48;1618452;87;21911;-71
2021/12/09 07:08:19;;;;;;;15.53;8.15;;;;;;;0.07;100.00;99126.61;1615889;86;21447;-71
2021/12/09 07:10:47;;;;;;;20.15;8.43;;;;;;;0.08;100.00;99130.39;1608393;88;21025;-71
2021/12/09 07:13:13;;;;;;;18.73;7.92;;;;;;;0.08;100.00;99127.70;1605880;88;21008;-71
2021/12/09 07:15:40;;;;;;;18.92;9.15;;;;;;;0.09;100.00;99123.92;1597613;88;20950;-71
2021/12/09 07:18:07;;;;;;;14.28;8.38;;;;;;;0.09;100.00;99125.81;1603066;88;21167;-70
2021/12/09 07:20:34;;;;;;;18.67;8.50;;;;;;;0.11;100.00;99137.98;1606709;88;20983;-70
2021/12/09 07:23:00;;;;;;;19.57;8.53;;;;;;;0.11;100.00;99143.38;1596709;88;20983;-71
2021/12/09 07:25:27;;;;;;;22.98;9.28;;;;;;;0.10;100.00;99135.53;1611767;88;21042;-71
2021/12/09 07:27:55;;;;;;;22.73;9.45;;;;;;;0.12;100.00;99142.84;1601845;88;21469;-70
2021/12/09 07:30:23;;;;;;;19.45;9.63;;;;;;;0.11;100.00;99146.08;1609485;88;21187;-71
2021/12/09 07:32:50;;;;;;;17.70;8.85;;;;;;;0.11;100.00;99152.01;1612696;88;21461;-71
2021/12/09 07:35:17;;;;;;;24.18;9.65;;;;;;;0.09;100.00;99152.27;1613358;87;21006;-71
2021/12/09 07:37:44;;;;;;;24.40;11.03;;;;;;;0.09;100.00;99159.02;1616970;88;20898;-71
2021/12/09 07:40:15;;;;;;;20.20;10.38;;;;;;;0.12;100.00;99169.83;1612453;87;21474;-71
2021/12/09 07:42:41;;;;;;;19.73;9.80;;;;;;;0.17;100.00;99168.53;1603988;88;21251;-71
2021/12/09 07:45:09;;;;;;;23.12;10.70;;;;;;;0.18;100.00;99173.67;1605005;88;21029;-71
2021/12/09 07:47:36;;;;;;;39.03;14.47;;;;;;;0.18;100.00;99178.25;1601550;89;21578;-71
2021/12/09 07:50:05;;;;;;;58.33;14.00;;;;;;;0.20;100.00;99180.98;1603414;89;21026;-71
2021/12/09 07:52:31;;;;;;;42.43;13.98;;;;;;;0.24;100.00;99182.62;1587171;88;21055;-71
2021/12/09 07:54:58;;;;;;;23.55;11.15;;;;;;;0.28;100.00;99187.80;1588627;89;21100;-72
2021/12/09 07:57:25;;;;;;;36.75;11.48;;;;;;;0.29;100.00;99184.02;1603203;88;20928;-71
2021/12/09 07:59:51;;;;;;;27.85;11.18;;;;;;;0.28;100.00;99191.31;1620355;88;20980;-71
2021/12/09 08:02:19;;;;;;;26.37;10.48;;;;;;;0.28;100.00;99189.14;1597710;88;20971;-69
2021/12/09 08:04:45;;;;;;;23.87;9.78;;;;;;;0.28;100.00;99189.95;1606645;89;21087;-69
2021/12/09 08:07:12;;;;;;;31.62;11.03;;;;;;;0.29;100.00;99188.07;1655347;86;21158;-69
2021/12/09 08:09:39;;;;;;;26.57;10.90;;;;;;;0.26;100.00;99187.23;1636299;86;20992;-69
2021/12/09 08:12:07;;;;;;;30.35;11.65;;;;;;;0.25;100.00;99189.66;1636502;86;21075;-70
2021/12/09 08:14:35;;;;;;;25.17;11.68;;;;;;;0.23;100.00;99195.31;1646085;86;21168;-69
2021/12/09 08:17:34;;;;;;;28.60;11.45;;;;;;;0.22;100.00;99189.63;1652478;86;20973;-69
2021/12/09 08:19:41;;;;;;;27.35;12.73;;;;;;;0.22;100.00;99194.22;1616804;87;21466;-69
2021/12/09 08:22:10;;;;;;;24.57;12.25;;;;;;;0.22;100.00;99194.22;1639488;86;21160;-70
2021/12/09 08:24:37;;;;;;;29.67;13.15;;;;;;;0.23;100.00;99196.66;1655565;86;21148;-69
2021/12/09 08:27:04;;;;;;;37.98;15.23;;;;;;;0.26;100.00;99200.73;1650796;85;21423;-69
2021/12/09 08:29:32;;;;;;;41.40;15.80;;;;;;;0.26;100.00;99198.03;1637199;86;21025;-69
2021/12/09 08:31:58;;;;;;;54.58;16.35;;;;;;;0.25;100.00;99203.97;1624033;86;21083;-69
2021/12/09 08:34:24;;;;;;;37.15;15.28;;;;;;;0.25;100.00;99201.80;1630941;86;21133;-69
2021/12/09 08:36:51;;;;;;;40.17;16.52;;;;;;;0.24;100.00;99198.83;1632637;86;21419;-69
2021/12/09 08:39:18;;;;;;;58.28;19.82;;;;;;;0.24;100.00;99196.13;1642726;86;21468;-70
2021/12/09 08:41:44;;;;;;;41.85;17.42;;;;;;;0.22;100.00;99194.22;1628970;86;21003;-70
2021/12/09 08:44:11;;;;;;;52.33;20.65;;;;;;;0.20;100.00;99189.61;1646786;86;21951;-70
2021/12/09 08:46:38;;;;;;;46.68;17.82;;;;;;;0.19;100.00;99198.78;1651513;86;21489;-85
2021/12/09 08:49:04;;;;;;;36.42;14.68;;;;;;;0.19;100.00;99193.37;1651531;85;21521;-72
2021/12/09 08:51:32;;;;;;;38.10;13.62;;;;;;;0.19;100.00;99187.98;1656056;86;20986;-74
2021/12/09 08:53:58;;;;;;;35.25;11.48;;;;;;;0.20;100.00;99194.48;1654263;85;21569;-75
2021/12/09 08:56:25;;;;;;;29.05;11.30;;;;;;;0.21;100.00;99192.05;1652960;85;21782;-73
2021/12/09 08:58:51;;;;;;;22.80;11.12;;;;;;;0.20;100.00;99195.83;1654529;86;20883;-73
2021/12/09 09:01:18;;;;;;;36.48;14.83;;;;;;;0.19;100.00;99191.50;1654598;85;21005;-74
2021/12/09 09:03:45;;;;;;;52.27;20.27;;;;;;;0.18;100.00;99187.17;1653289;85;21030;-77
2021/12/09 09:06:11;;;;;;;31.57;16.23;;;;;;;0.18;100.00;99190.41;1651912;86;20963;-67
2021/12/09 09:08:38;;;;;;;39.90;18.48;;;;;;;0.17;100.00;99186.08;1655674;85;21095;-70
2021/12/09 09:11:04;;;;;;;40.80;17.02;;;;;;;0.14;100.00;99185.23;1652930;86;21044;-79
2021/12/09 09:13:33;;;;;;;46.42;16.95;;;;;;;0.13;100.00;99187.13;1647331;86;20974;-75
2021/12/09 09:15:59;;;;;;;31.10;13.03;;;;;;;0.15;100.00;99182.28;1652795;86;21466;-76
2021/12/09 09:18:26;;;;;;;32.58;14.38;;;;;;;0.16;100.00;99178.52;1650129;86;21609;-79
2021/12/09 09:20:52;;;;;;;30.12;13.88;;;;;;;0.18;100.00;99183.66;1652822;86;21823;-73
2021/12/09 09:23:20;;;;;;;28.90;14.85;;;;;;;0.19;100.00;99182.05;1619212;87;20934;-73
2021/12/09 09:25:47;;;;;;;33.08;15.85;;;;;;;0.21;100.00;99178.55;1647548;86;20984;-68
2021/12/09 09:28:14;;;;;;;39.78;17.87;;;;;;;0.22;100.00;99182.07;1652337;85;21028;-77
2021/12/09 09:30:45;;;;;;;36.45;15.28;;;;;;;0.23;100.00;99186.40;1643680;86;21017;-78
2021/12/09 09:33:13;;;;;;;27.62;13.72;;;;;;;0.25;100.00;99189.12;1620628;85;21107;-72
2021/12/09 09:35:42;;;;;;;30.85;14.28;;;;;;;0.27;100.00;99188.86;1647597;85;21039;-74
2021/12/09 09:38:08;;;;;;;34.35;14.58;;;;;;;0.28;100.00;99190.49;1633541;86;21219;-71
2021/12/09 09:40:51;;;;;;;31.60;14.65;;;;;;;0.30;100.00;99190.52;1635450;86;21044;-71
2021/12/09 09:43:41;;;;;;;29.07;13.75;;;;;;;0.30;100.00;99187.81;1635780;86;20966;-71
2021/12/09 09:45:57;;;;;;;29.25;13.60;;;;;;;0.29;100.00;99185.37;1631063;86;21176;-71
2021/12/09 09:48:24;;;;;;;28.42;13.48;;;;;;;0.28;100.00;99187.25;1638378;86;21445;-70
2021/12/09 09:50:50;;;;;;;27.15;13.55;;;;;;;0.27;100.00;99192.37;1635988;86;21527;-69
2021/12/09 09:53:17;;;;;;;30.85;14.28;;;;;;;0.26;100.00;99192.63;1642458;86;21035;-69
2021/12/09 09:55:47;;;;;;;30.23;14.28;;;;;;;0.25;100.00;99196.41;1635090;86;21062;-69
2021/12/09 09:58:14;;;;;;;28.47;13.58;;;;;;;0.25;100.00;99191.00;1637004;86;21159;-79
2021/12/09 10:00:42;;;;;;;31.20;14.70;;;;;;;0.24;100.00;99192.89;1645103;85;21103;-75
2021/12/09 10:03:16;;;;;;;36.93;16.40;;;;;;;0.27;100.00;99190.22;1636759;85;21046;-71
2021/12/09 10:05:43;;;;;;;36.55;14.98;;;;;;;0.27;100.00;99190.22;1627763;86;21487;-70
2021/12/09 10:08:06;;;;;;;30.97;14.73;;;;;;;0.28;100.00;99191.84;1635009;85;21042;-71
2021/12/09 10:10:34;;;;;;;38.38;15.43;;;;;;;0.29;100.00;99191.59;1631575;86;21241;-71
2021/12/09 10:13:04;;;;;;;41.05;16.15;;;;;;;0.29;100.00;99183.48;1634653;86;21073;-70
2021/12/09 10:15:42;;;;;;;39.18;18.30;;;;;;;0.31;100.00;99179.18;1632064;86;21081;-71
2021/12/09 10:18:10;;;;;;;39.78;17.00;;;;;;;0.32;100.00;99182.16;1636441;86;21035;-71
2021/12/09 10:20:53;;;;;;;41.37;17.02;;;;;;;0.35;100.00;99180.83;1628417;86;21085;-69
2021/12/09 10:23:30;;;;;;;31.57;15.10;;;;;;;0.36;100.00;99187.86;1639658;86;21171;-72
2021/12/09 10:26:20;;;;;;;30.17;14.35;;;;;;;0.32;100.00;99191.07;1626127;86;21043;-72
2021/12/09 10:28:52;;;;;;;30.70;16.15;;;;;;;0.33;100.00;99201.34;1622303;86;21050;-73
2021/12/09 10:31:29;;;;;;;32.40;16.42;;;;;;;0.36;100.00;99194.61;1628033;86;21067;-71
2021/12/09 10:34:04;;;;;;;36.83;16.30;;;;;;;0.39;100.00;99195.45;1639348;85;21600;-72
2021/12/09 10:36:52;;;;;;;32.28;15.75;;;;;;;0.40;100.00;99193.84;1635659;86;21159;-71
2021/12/09 10:39:41;;;;;;;33.55;14.85;;;;;;;0.41;100.00;99194.65;1610998;87;21014;-70
2021/12/09 10:42:16;;;;;;;33.53;16.37;;;;;;;0.39;100.00;99197.61;1606943;87;21044;-71
2021/12/09 10:44:47;;;;;;;32.15;15.95;;;;;;;0.37;100.00;99195.70;1607440;88;21044;-71
2021/12/09 10:47:37;;;;;;;41.18;19.15;;;;;;;0.36;100.00;99195.42;1609656;87;21134;-72
2021/12/09 10:50:07;;;;;;;51.45;20.92;;;;;;;0.34;100.00;99188.11;1618304;86;21597;-76
2021/12/09 10:52:41;;;;;;;49.33;20.77;;;;;;;0.34;100.00;99181.37;1632283;86;21017;-70
2021/12/09 10:55:11;;;;;;;45.28;19.40;;;;;;;0.36;100.00;99184.63;1638773;86;20982;-70
2021/12/09 10:57:39;;;;;;;49.80;20.77;;;;;;;0.37;100.00;99186.25;1636699;86;21046;-70
2021/12/09 11:00:23;;;;;;;42.90;19.32;;;;;;;0.35;100.00;99185.69;1638282;86;21559;-69
2021/12/09 11:02:59;;;;;;;38.63;18.15;;;;;;;0.34;100.00;99186.77;1611406;86;21214;-72
2021/12/09 11:05:26;;;;;;;41.75;19.27;;;;;;;0.34;100.00;99180.02;1632833;86;21520;-70
2021/12/09 11:07:54;;;;;;;45.80;19.75;;;;;;;0.32;100.00;99185.67;1634958;86;21633;-71
2021/12/09 11:10:24;;;;;;;41.02;18.37;;;;;;;0.33;100.00;99181.09;1635264;86;21584;-68
2021/12/09 11:12:57;;;;;;;46.98;19.42;;;;;;;0.33;100.00;99183.25;1634798;86;21622;-69
2021/12/09 11:15:53;;;;;;;44.73;19.87;;;;;;;0.34;100.00;99181.37;1606904;89;21116;-69
2021/12/09 11:18:38;;;;;;;60.80;21.73;;;;;;;0.31;100.00;99182.69;1606633;88;21567;-69
2021/12/09 11:21:12;;;;;;;62.03;21.90;;;;;;;0.32;100.00;99184.32;1599971;89;21056;-69
2021/12/09 11:23:49;;;;;;;46.65;18.87;;;;;;;0.32;100.00;99182.97;1627605;86;21522;-69
2021/12/09 11:29:17;;;;;;;45.83;19.10;;;;;;;0.38;100.00;99183.02;1633674;86;21168;-70
2021/12/09 11:32:12;;;;;;;43.08;18.73;;;;;;;0.34;100.00;99181.37;1643557;86;21060;-70
2021/12/09 11:34:45;;;;;;;44.33;18.12;;;;;;;0.32;100.00;99180.80;1631173;86;21042;-70